Latest Weather Observations for St Kilda Harbour RMYS

IDV60901

Issued at 6:01 am EST Monday 6 April 2020 (issued every 10 minutes, with the page automatically refreshed every 10 minutes)

About weather observations | Map of Melbourne area stations | Latest observations for Melbourne area | Other Formats
Station Details ID: 086220 Name: ST KILDA HARBOUR - RMYS Lat: -37.86 Lon: 144.96 Height: 6.4 m
Data from the previous 72 hours. | See also: Recent months at St Kilda Harbour RMYS
Date/Time
EST
Temp
°C
App
Temp
°C
Dew
Point
°C
Rel
Hum
%
Delta-T
°C
Wind Press
QNH
hPa
Press
MSL
hPa
Rain since
9am
mm
Dir  Spd
km/h
Gust
km/h
Spd
kts
Gust
kts
06/06:00am - - - - - W 22 26 12 14 - - -
06/05:30am - - - - - W 22 28 12 15 - - -
06/05:00am - - - - - W 22 28 12 15 - - -
06/04:30am - - - - - W 20 24 11 13 - - -
06/04:00am - - - - - W 17 20 9 11 - - -
06/03:30am - - - - - W 20 24 11 13 - - -
06/03:00am - - - - - W 20 28 11 15 - - -
06/02:30am - - - - - W 20 28 11 15 - - -
06/02:00am - - - - - WNW 20 24 11 13 - - -
06/01:30am - - - - - WNW 19 26 10 14 - - -
06/01:00am - - - - - WNW 20 26 11 14 - - -
06/12:30am - - - - - WNW 22 28 12 15 - - -
06/12:00am - - - - - WNW 20 26 11 14 - - -
 
Date/Time
EST
Temp
°C
App
Temp
°C
Dew
Point
°C
Rel
Hum
%
Delta-T
°C
Wind Press
QNH
hPa
Press
MSL
hPa
Rain since
9am
mm
Dir  Spd
km/h
Gust
km/h
Spd
kts
Gust
kts
05/11:30pm - - - - - W 24 30 13 16 - - -
05/11:00pm - - - - - W 20 30 11 16 - - -
05/10:30pm - - - - - WNW 22 26 12 14 - - -
05/10:00pm - - - - - WNW 20 24 11 13 - - -
05/09:30pm - - - - - W 20 26 11 14 - - -
05/09:00pm - - - - - W 19 26 10 14 - - -
05/08:30pm - - - - - W 22 28 12 15 - - -
05/08:00pm - - - - - W 22 28 12 15 - - -
05/07:30pm - - - - - WSW 28 33 15 18 - - -
05/07:00pm - - - - - WSW 37 46 20 25 - - -
05/06:30pm - - - - - WSW 39 56 21 30 - - -
05/06:26pm - - - - - WSW 33 54 18 29 - - -
05/06:00pm - - - - - W 35 43 19 23 - - -
05/05:30pm - - - - - W 30 35 16 19 - - -
05/05:00pm - - - - - W 30 33 16 18 - - -
05/04:30pm - - - - - WNW 26 33 14 18 - - -
05/04:00pm - - - - - WNW 19 22 10 12 - - -
05/03:30pm - - - - - WNW 28 33 15 18 - - -
05/03:00pm - - - - - W 28 35 15 19 - - -
05/02:30pm - - - - - W 35 44 19 24 - - -
05/02:00pm - - - - - W 39 52 21 28 - - -
05/01:30pm - - - - - W 46 76 25 41 - - -
05/01:22pm - - - - - W 33 59 18 32 - - -
05/01:09pm - - - - - NW 28 46 15 25 - - -
05/01:00pm - - - - - NW 33 44 18 24 - - -
05/12:31pm - - - - - NW 28 48 15 26 - - -
05/12:30pm - - - - - NW 28 39 15 21 - - -
05/12:00pm - - - - - NNW 35 44 19 24 - - -
05/11:30am - - - - - NNW 37 48 20 26 - - -
05/11:05am - - - - - NNW 41 61 22 33 - - -
05/11:00am - - - - - NNW 39 56 21 30 - - -
05/10:30am - - - - - NNW 46 69 25 37 - - -
05/10:19am - - - - - NNW 43 65 23 35 - - -
05/10:00am - - - - - NNW 46 63 25 34 - - -
05/09:30am - - - - - NNW 52 76 28 41 - - -
05/09:00am - - - - - NNW 43 63 23 34 - - -
05/08:30am - - - - - NNW 41 61 22 33 - - -
05/08:00am - - - - - NNW 52 72 28 39 - - -
05/07:34am - - - - - NNW 44 70 24 38 - - -
05/07:30am - - - - - NNW 39 56 21 30 - - -
05/07:00am - - - - - NNW 44 65 24 35 - - -
05/06:32am - - - - - NNW 39 57 21 31 - - -
05/06:30am - - - - - NNW 39 56 21 30 - - -
05/06:17am - - - - - N 39 57 21 31 - - -
05/06:00am - - - - - N 33 44 18 24 - - -
05/05:40am - - - - - N 35 59 19 32 - - -
05/05:30am - - - - - N 37 50 20 27 - - -
05/05:00am - - - - - N 33 44 18 24 - - -
05/04:30am - - - - - N 28 37 15 20 - - -
05/04:00am - - - - - N 22 32 12 17 - - -
05/03:30am - - - - - N 26 37 14 20 - - -
05/03:00am - - - - - NNW 30 46 16 25 - - -
05/03:30am - - - - - NNW 28 41 15 22 - - -
05/03:00am - - - - - NNW 30 43 16 23 - - -
05/02:30am - - - - - NNW 30 39 16 21 - - -
05/02:00am - - - - - NNW 30 37 16 20 - - -
05/01:30am - - - - - NNW 28 35 15 19 - - -
05/01:00am - - - - - NNW 19 26 10 14 - - -
05/12:30am - - - - - NNW 24 35 13 19 - - -
05/12:00am - - - - - NNW 24 35 13 19 - - -
 
Date/Time
EST
Temp
°C
App
Temp
°C
Dew
Point
°C
Rel
Hum
%
Delta-T
°C
Wind Press
QNH
hPa
Press
MSL
hPa
Rain since
9am
mm
Dir  Spd
km/h
Gust
km/h
Spd
kts
Gust
kts
04/11:30pm - - - - - NW 30 41 16 22 - - -
04/11:00pm - - - - - NW 30 41 16 22 - - -
04/10:30pm - - - - - NW 28 37 15 20 - - -
04/10:00pm - - - - - NW 32 39 17 21 - - -
04/09:30pm - - - - - NW 30 39 16 21 - - -
04/09:00pm - - - - - WNW 33 44 18 24 - - -
04/08:30pm - - - - - WNW 33 41 18 22 - - -
04/08:00pm - - - - - WNW 32 41 17 22 - - -
04/07:30pm - - - - - WNW 39 44 21 24 - - -
04/07:00pm - - - - - WNW 37 46 20 25 - - -
04/06:30pm - - - - - W 44 70 24 38 - - -
04/06:27pm - - - - - W 41 63 22 34 - - -
04/06:00pm - - - - - W 33 43 18 23 - - -
04/05:30pm - - - - - W 46 59 25 32 - - -
04/05:06pm - - - - - WSW 52 76 28 41 - - -
04/05:00pm - - - - - WSW 52 67 28 36 - - -
04/04:50pm - - - - - W 39 70 21 38 - - -
04/04:49pm - - - - - W 35 70 19 38 - - -
04/04:30pm - - - - - WNW 33 41 18 22 - - -
04/04:00pm - - - - - WNW 32 48 17 26 - - -
04/03:30pm - - - - - W 44 54 24 29 - - -
04/03:26pm - - - - - W 44 54 24 29 - - -
04/03:00pm - - - - - WSW 61 76 33 41 - - -
04/02:47pm - - - - - WSW 69 89 37 48 - - -
04/02:42pm - - - - - WSW 61 89 33 48 - - -
04/02:40pm - - - - - SW 56 80 30 43 - - -
04/02:30pm - - - - - WSW 44 59 24 32 - - -
04/02:15pm - - - - - W 32 54 17 29 - - -
04/02:00pm - - - - - W 35 43 19 23 - - -
04/01:30pm - - - - - WNW 37 44 20 24 - - -
04/01:29pm - - - - - WNW 39 46 21 25 - - -
04/01:00pm - - - - - WSW 50 65 27 35 - - -
04/12:30pm - - - - - W 48 61 26 33 - - -
04/12:16pm - - - - - W 43 63 23 34 - - -
04/12:00pm - - - - - W 39 46 21 25 - - -
04/11:30am - - - - - W 35 43 19 23 - - -
04/11:00am - - - - - W 37 50 20 27 - - -
04/10:30am - - - - - W 37 44 20 24 - - -
04/10:00am - - - - - W 41 54 22 29 - - -
04/09:30am - - - - - W 33 43 18 23 - - -
04/09:00am - - - - - W 35 43 19 23 - - -
04/08:30am - - - - - W 32 43 17 23 - - -
04/08:00am - - - - - W 26 35 14 19 - - -
04/07:30am - - - - - WNW 24 30 13 16 - - -
04/07:00am - - - - - WNW 22 30 12 16 - - -
04/06:30am - - - - - NNW 17 20 9 11 - - -
04/06:00am - - - - - NNW 11 19 6 10 - - -
04/05:30am - - - - - NNE 7 13 4 7 - - -
04/05:00am - - - - - NNE 9 13 5 7 - - -
04/04:30am - - - - - N 7 9 4 5 - - -
04/04:00am - - - - - WNW 9 13 5 7 - - -
04/03:30am - - - - - W 9 11 5 6 - - -
04/03:00am - - - - - W 11 19 6 10 - - -
04/02:30am - - - - - W 11 19 6 10 - - -
04/02:00am - - - - - W 17 22 9 12 - - -
04/01:30am - - - - - WSW 30 41 16 22 - - -
04/01:00am - - - - - WSW 39 44 21 24 - - -
04/12:32am - - - - - WSW 39 59 21 32 - - -
04/12:30am - - - - - W 33 46 18 25 - - -
04/12:25am - - - - - NNW 22 43 12 23 - - -
04/12:00am - - - - - NNE 24 32 13 17 - - -
 
Date/Time
EST
Temp
°C
App
Temp
°C
Dew
Point
°C
Rel
Hum
%
Delta-T
°C
Wind Press
QNH
hPa
Press
MSL
hPa
Rain since
9am
mm
Dir  Spd
km/h
Gust
km/h
Spd
kts
Gust
kts
03/11:30pm - - - - - NNE 24 35 13 19 - - -
03/11:00pm - - - - - NNE 35 50 19 27 - - -
03/10:45pm - - - - - NNE 30 48 16 26 - - -
03/10:30pm - - - - - NNE 32 44 17 24 - - -
03/10:00pm - - - - - NNE 26 41 14 22 - - -
03/09:40pm - - - - - NNE 28 46 15 25 - - -
03/09:30pm - - - - - NNE 26 39 14 21 - - -
03/09:00pm - - - - - NNE 20 35 11 19 - - -
03/08:30pm - - - - - NNE 24 39 13 21 - - -
03/08:00pm - - - - - NNE 20 32 11 17 - - -
03/07:30pm - - - - - NNE 19 32 10 17 - - -
03/07:00pm - - - - - NNE 20 30 11 16 - - -
03/06:30pm - - - - - NNE 24 41 13 22 - - -
03/06:00pm - - - - - NNE 30 46 16 25 - - -
03/05:30pm - - - - - N 32 50 17 27 - - -
03/05:06pm - - - - - N 30 50 16 27 - - -
03/05:00pm - - - - - NNE 30 43 16 23 - - -
03/04:30pm - - - - - N 35 50 19 27 - - -
03/04:00pm - - - - - N 32 44 17 24 - - -
03/03:30pm - - - - - N 32 50 17 27 - - -
03/03:16pm - - - - - N 28 46 15 25 - - -
03/03:00pm - - - - - N 33 44 18 24 - - -
03/02:36pm - - - - - N 30 50 16 27 - - -
03/02:30pm - - - - - N 28 43 15 23 - - -
03/02:00pm - - - - - N 28 43 15 23 - - -
03/01:30pm - - - - - N 33 44 18 24 - - -
03/01:00pm - - - - - N 30 43 16 23 - - -
03/12:30pm - - - - - N 32 46 17 25 - - -
03/12:00pm - - - - - N 33 50 18 27 - - -
03/11:30am - - - - - N 30 44 16 24 - - -
03/11:00am - - - - - N 26 39 14 21 - - -
03/10:30am - - - - - N 22 37 12 20 - - -
03/10:00am - - - - - NNE 19 26 10 14 - - -
03/09:30am - - - - - NNE 15 24 8 13 - - -
03/09:00am - - - - - NNE 15 24 8 13 - - -
03/08:30am - - - - - NNE 15 22 8 12 - - -
03/08:00am - - - - - NNE 15 20 8 11 - - -
03/07:30am - - - - - NNE 15 22 8 12 - - -

Latest Capital City Observations: Canberra | Sydney | Melbourne | Brisbane | Adelaide | Perth | Hobart | Darwin

Other formats

Comma delimited format used in spreadsheet applications
http://www.bom.gov.au/fwo/IDV60901/IDV60901.95864.axf

JavaScript Object Notation format (JSON) in row-major order
http://www.bom.gov.au/fwo/IDV60901/IDV60901.95864.json

Data quality

Most of these data are generated automatically and are frequently updated. Quality checks on data are not normally performed. It is possible for incorrect values to appear. Refer to information at About Latest Weather Observations and please check the disclaimer before using these data.